createdAt,value
2017-10-18T00:00:32.845Z,101845.08
2017-10-18T00:03:01.944Z,101829.97
2017-10-18T00:05:30.267Z,101837.09
2017-10-18T00:08:00.103Z,101837.68
2017-10-18T00:10:39.001Z,101831.77
2017-10-18T00:13:07.505Z,101830.47
2017-10-18T00:15:35.825Z,101831.81
2017-10-18T00:18:04.926Z,101824.23
2017-10-18T00:20:34.055Z,101826.54
2017-10-18T00:23:02.367Z,101835.63
2017-10-18T00:25:30.678Z,101830.28
2017-10-18T00:27:59.781Z,101837.20
2017-10-18T00:30:28.873Z,101829.72
2017-10-18T00:32:57.203Z,101820.05
2017-10-18T00:35:25.519Z,101826.98
2017-10-18T00:37:53.938Z,101834.75
2017-10-18T00:40:22.289Z,101840.66
2017-10-18T00:42:51.988Z,101839.12
2017-10-18T00:45:25.381Z,101831.53
2017-10-18T00:47:53.874Z,101829.08
2017-10-18T00:50:22.349Z,101827.42
2017-10-18T00:52:52.097Z,101830.23
2017-10-18T00:55:21.175Z,101824.59
2017-10-18T00:57:49.511Z,101823.56
2017-10-18T01:00:17.859Z,101821.52
2017-10-18T01:02:46.933Z,101809.69
2017-10-18T01:05:15.291Z,101811.53
2017-10-18T01:07:43.601Z,101814.86
2017-10-18T01:10:12.019Z,101806.20
2017-10-18T01:12:40.417Z,101808.19
2017-10-18T01:15:09.103Z,101804.70
2017-10-18T01:17:37.461Z,101796.47
2017-10-18T01:20:06.533Z,101797.08
2017-10-18T01:22:34.889Z,101803.49
2017-10-18T01:25:03.225Z,101791.42
2017-10-18T01:27:32.318Z,101785.36
2017-10-18T01:30:00.631Z,101787.43
2017-10-18T01:32:28.988Z,101795.70
2017-10-18T01:34:58.077Z,101793.23
2017-10-18T01:37:26.399Z,101776.54
2017-10-18T01:39:54.737Z,101782.63
2017-10-18T01:42:23.074Z,101788.28
2017-10-18T01:44:51.397Z,101774.68
2017-10-18T01:47:19.729Z,101769.22
2017-10-18T01:49:48.053Z,101772.54
2017-10-18T01:52:16.377Z,101774.93
2017-10-18T01:54:44.704Z,101777.52
2017-10-18T01:57:13.043Z,101773.81
2017-10-18T01:59:41.381Z,101768.25
2017-10-18T02:02:09.721Z,101767.33
2017-10-18T02:04:38.045Z,101773.42
2017-10-18T02:07:06.366Z,101766.11
2017-10-18T02:09:34.749Z,101774.02
2017-10-18T02:12:03.182Z,101773.52
2017-10-18T02:14:31.511Z,101773.52
2017-10-18T02:16:59.825Z,101774.86
2017-10-18T02:19:28.135Z,101770.52
2017-10-18T02:21:56.450Z,101766.80
2017-10-18T02:24:25.528Z,101751.13
2017-10-18T02:26:53.856Z,101748.14
2017-10-18T02:29:22.202Z,101756.09
2017-10-18T02:31:51.282Z,101757.54
2017-10-18T02:34:19.587Z,101751.86
2017-10-18T02:36:48.674Z,101741.02
2017-10-18T02:39:17.773Z,101735.46
2017-10-18T02:41:46.878Z,101727.41
2017-10-18T02:44:15.950Z,101723.80
2017-10-18T02:46:44.268Z,101730.52
2017-10-18T02:49:12.576Z,101730.52
2017-10-18T02:51:40.894Z,101724.31
2017-10-18T02:54:09.201Z,101717.00
2017-10-18T02:56:38.289Z,101712.68
2017-10-18T02:59:06.908Z,101701.34
2017-10-18T03:01:35.245Z,101710.12
2017-10-18T03:04:03.582Z,101707.23
2017-10-18T03:06:31.907Z,101712.09
2017-10-18T03:09:00.252Z,101708.06
2017-10-18T03:11:28.684Z,101702.98
2017-10-18T03:13:56.993Z,101697.84
2017-10-18T03:16:25.320Z,101682.77
2017-10-18T03:18:53.639Z,101682.04
2017-10-18T03:21:22.731Z,101672.23
2017-10-18T03:23:51.840Z,101672.75
2017-10-18T03:26:20.929Z,101668.31
2017-10-18T03:28:49.891Z,101675.22
2017-10-18T03:31:18.940Z,101676.97
2017-10-18T03:33:47.266Z,101676.26
2017-10-18T03:36:15.581Z,101664.91
2017-10-18T03:38:44.680Z,101662.86
2017-10-18T03:41:13.010Z,101659.86
2017-10-18T03:43:41.330Z,101660.69
2017-10-18T03:46:09.672Z,101658.42
2017-10-18T03:48:37.988Z,101664.20
2017-10-18T03:51:07.085Z,101665.00
2017-10-18T03:53:35.390Z,101651.81
2017-10-18T03:56:04.492Z,101646.96
2017-10-18T03:58:32.840Z,101639.01
2017-10-18T04:01:01.172Z,101641.59
2017-10-18T04:03:29.494Z,101646.03
2017-10-18T04:05:57.810Z,101645.52
2017-10-18T04:08:26.194Z,101640.57
2017-10-18T04:10:54.516Z,101640.34
2017-10-18T04:13:22.814Z,101633.11
2017-10-18T04:15:51.121Z,101634.77
2017-10-18T04:18:19.455Z,101639.02
2017-10-18T04:20:47.758Z,101639.94
2017-10-18T04:23:16.080Z,101637.98
2017-10-18T04:25:44.408Z,101633.86
2017-10-18T04:28:12.712Z,101630.66
2017-10-18T04:30:41.038Z,101628.39
2017-10-18T04:33:09.332Z,101630.46
2017-10-18T04:35:37.665Z,101627.78
2017-10-18T04:38:06.752Z,101627.89
2017-10-18T04:40:35.068Z,101617.16
2017-10-18T04:43:03.380Z,101614.89
2017-10-18T04:45:32.571Z,101608.42
2017-10-18T04:48:00.884Z,101613.66
2017-10-18T04:50:29.260Z,101620.92
2017-10-18T04:52:57.599Z,101612.22
2017-10-18T04:55:25.893Z,101616.97
2017-10-18T04:57:54.205Z,101609.55
2017-10-18T05:00:22.576Z,101600.05
2017-10-18T05:02:50.923Z,101596.86
2017-10-18T05:05:19.221Z,101595.31
2017-10-18T05:07:47.568Z,101603.47
2017-10-18T05:10:16.638Z,101601.52
2017-10-18T05:12:44.936Z,101593.67
2017-10-18T05:15:14.040Z,101592.23
2017-10-18T05:17:42.352Z,101589.95
2017-10-18T05:20:10.650Z,101586.66
2017-10-18T05:22:38.960Z,101594.61
2017-10-18T05:25:07.262Z,101593.69
2017-10-18T05:27:35.594Z,101597.48
2017-10-18T05:30:03.908Z,101603.37
2017-10-18T05:32:32.210Z,101590.26
2017-10-18T05:35:00.528Z,101582.31
2017-10-18T05:37:28.850Z,101582.22
2017-10-18T05:39:57.224Z,101585.94
2017-10-18T05:42:25.538Z,101595.41
2017-10-18T05:44:53.866Z,101589.63
2017-10-18T05:47:22.995Z,101592.42
2017-10-18T05:49:51.315Z,101594.39
2017-10-18T05:52:20.428Z,101585.41
2017-10-18T05:54:49.972Z,101583.45
2017-10-18T05:57:18.296Z,101573.53
2017-10-18T05:59:46.654Z,101583.56
2017-10-18T06:02:14.957Z,101587.91
2017-10-18T06:04:43.260Z,101591.21
2017-10-18T06:07:11.589Z,101595.00
2017-10-18T06:09:40.558Z,101593.97
2017-10-18T06:12:08.845Z,101595.11
2017-10-18T06:14:37.166Z,101590.36
2017-10-18T06:17:05.468Z,101586.65
2017-10-18T06:19:34.532Z,101592.44
2017-10-18T06:22:02.868Z,101594.30
2017-10-18T06:24:31.176Z,101593.17
2017-10-18T06:26:59.496Z,101591.41
2017-10-18T06:29:27.795Z,101590.89
2017-10-18T06:31:56.870Z,101583.34
2017-10-18T06:34:25.187Z,101583.55
2017-10-18T06:36:54.288Z,101580.97
2017-10-18T06:39:22.590Z,101583.86
2017-10-18T06:41:50.916Z,101580.66
2017-10-18T06:44:19.222Z,101577.45
2017-10-18T06:46:48.347Z,101582.84
2017-10-18T06:49:16.671Z,101577.05
2017-10-18T06:51:45.560Z,101574.67
2017-10-18T06:54:13.898Z,101577.25
2017-10-18T06:56:42.244Z,101576.42
2017-10-18T06:59:10.557Z,101574.86
2017-10-18T07:01:38.853Z,101574.86
2017-10-18T07:04:10.694Z,101570.05
2017-10-18T07:06:39.772Z,101570.14
2017-10-18T07:09:08.096Z,101573.86
2017-10-18T07:11:36.403Z,101572.41
2017-10-18T07:14:04.717Z,101571.48
2017-10-18T07:16:33.029Z,101574.07
2017-10-18T07:19:01.339Z,101572.49
2017-10-18T07:21:29.675Z,101572.80
2017-10-18T07:23:58.867Z,101581.90
2017-10-18T07:26:27.176Z,101584.59
2017-10-18T07:28:55.471Z,101582.42
2017-10-18T07:31:23.775Z,101582.50
2017-10-18T07:33:52.069Z,101581.48
2017-10-18T07:36:20.409Z,101583.85
2017-10-18T07:38:48.708Z,101585.30
2017-10-18T07:41:17.117Z,101583.96
2017-10-18T07:43:45.444Z,101586.76
2017-10-18T07:46:14.547Z,101579.73
2017-10-18T07:48:44.193Z,101582.39
2017-10-18T07:51:12.508Z,101583.33
2017-10-18T07:53:43.250Z,101585.61
2017-10-18T07:56:11.548Z,101583.85
2017-10-18T07:58:39.853Z,101580.86
2017-10-18T08:01:08.182Z,101573.19
2017-10-18T08:03:37.256Z,101570.70
2017-10-18T08:06:05.553Z,101580.94
2017-10-18T08:08:33.887Z,101583.50
2017-10-18T08:11:02.185Z,101575.75
2017-10-18T08:13:30.510Z,101575.02
2017-10-18T08:15:58.838Z,101574.16
2017-10-18T08:18:27.154Z,101564.12
2017-10-18T08:20:55.502Z,101567.92
2017-10-18T08:23:23.827Z,101567.30
2017-10-18T08:25:52.135Z,101559.77
2017-10-18T08:28:21.236Z,101556.63
2017-10-18T08:30:50.305Z,101556.48
2017-10-18T08:33:18.611Z,101558.42
2017-10-18T08:35:47.771Z,101558.52
2017-10-18T08:38:16.063Z,101565.61
2017-10-18T08:40:44.376Z,101557.12
2017-10-18T08:43:13.446Z,101563.02
2017-10-18T08:45:41.781Z,101567.25
2017-10-18T08:48:10.087Z,101574.48
2017-10-18T08:50:38.420Z,101571.97
2017-10-18T08:53:06.786Z,101566.06
2017-10-18T08:55:35.123Z,101572.27
2017-10-18T08:58:03.445Z,101571.95
2017-10-18T09:00:31.801Z,101570.76
2017-10-18T09:03:00.125Z,101567.75
2017-10-18T09:05:28.431Z,101562.46
2017-10-18T09:07:57.516Z,101567.52
2017-10-18T09:10:26.602Z,101569.27
2017-10-18T09:12:54.908Z,101559.12
2017-10-18T09:15:23.985Z,101557.73
2017-10-18T09:17:52.314Z,101560.92
2017-10-18T09:20:20.629Z,101558.63
2017-10-18T09:22:48.933Z,101552.92
2017-10-18T09:25:17.258Z,101543.45
2017-10-18T09:27:45.550Z,101544.06
2017-10-18T09:30:13.871Z,101540.83
2017-10-18T09:32:42.215Z,101532.63
2017-10-18T09:35:10.555Z,101529.47
2017-10-18T09:37:39.633Z,101526.23
2017-10-18T09:40:08.599Z,101529.95
2017-10-18T09:42:36.939Z,101537.25
2017-10-18T09:45:05.255Z,101533.22
2017-10-18T09:47:33.571Z,101533.09
2017-10-18T09:50:01.905Z,101529.13
2017-10-18T09:52:30.222Z,101525.75
2017-10-18T09:54:58.605Z,101522.21
2017-10-18T09:57:26.912Z,101518.97
2017-10-18T09:59:55.237Z,101518.02
2017-10-18T10:02:23.600Z,101514.73
2017-10-18T10:04:51.945Z,101511.80
2017-10-18T10:07:20.273Z,101508.14
2017-10-18T10:09:48.585Z,101514.30
2017-10-18T10:12:16.904Z,101507.13
2017-10-18T10:14:45.224Z,101507.31
2017-10-18T10:17:14.186Z,101509.88
2017-10-18T10:19:42.521Z,101519.13
2017-10-18T10:22:10.838Z,101516.11
2017-10-18T10:24:39.165Z,101514.02
2017-10-18T10:27:07.482Z,101510.88
2017-10-18T10:29:35.816Z,101508.01
2017-10-18T10:32:04.123Z,101504.75
2017-10-18T10:34:32.431Z,101509.30
2017-10-18T10:37:00.758Z,101506.50
2017-10-18T10:39:29.851Z,101506.02
2017-10-18T10:41:58.957Z,101509.03
2017-10-18T10:44:27.868Z,101504.50
2017-10-18T10:46:56.254Z,101507.91
2017-10-18T10:49:24.554Z,101510.31
2017-10-18T10:51:52.898Z,101507.06
2017-10-18T10:54:21.220Z,101506.12
2017-10-18T10:56:49.548Z,101500.54
2017-10-18T10:59:18.641Z,101503.84
2017-10-18T11:01:46.972Z,101498.66
2017-10-18T11:04:15.309Z,101499.59
2017-10-18T11:06:43.628Z,101500.63
2017-10-18T11:09:11.948Z,101496.53
2017-10-18T11:11:40.259Z,101494.70
2017-10-18T11:14:09.348Z,101483.81
2017-10-18T11:16:37.675Z,101499.20
2017-10-18T11:19:05.984Z,101493.93
2017-10-18T11:21:34.316Z,101490.25
2017-10-18T11:24:02.627Z,101491.47
2017-10-18T11:26:30.938Z,101489.02
2017-10-18T11:28:59.269Z,101494.41
2017-10-18T11:31:27.572Z,101489.42
2017-10-18T11:33:55.875Z,101484.28
2017-10-18T11:36:24.190Z,101490.73
2017-10-18T11:38:53.264Z,101487.14
2017-10-18T11:41:21.579Z,101481.99
2017-10-18T11:43:51.361Z,101480.37
2017-10-18T11:46:19.683Z,101473.37
2017-10-18T11:48:48.005Z,101471.77
2017-10-18T11:51:16.316Z,101473.28
2017-10-18T11:53:44.612Z,101467.13
2017-10-18T11:56:13.722Z,101464.53
2017-10-18T11:58:42.815Z,101463.59
2017-10-18T12:01:11.888Z,101451.52
2017-10-18T12:03:40.217Z,101462.59
2017-10-18T12:06:08.524Z,101461.63
2017-10-18T12:08:36.831Z,101459.55
2017-10-18T12:11:05.182Z,101452.67
2017-10-18T12:13:33.515Z,101447.96
2017-10-18T12:16:01.856Z,101440.78
2017-10-18T12:18:30.170Z,101438.94
2017-10-18T12:20:58.482Z,101432.99
2017-10-18T12:23:26.919Z,101437.75
2017-10-18T12:25:55.236Z,101434.39
2017-10-18T12:28:24.329Z,101430.05
2017-10-18T12:30:53.410Z,101430.20
2017-10-18T12:33:21.715Z,101435.51
2017-10-18T12:35:50.774Z,101423.75
2017-10-18T12:38:19.082Z,101420.91
2017-10-18T12:40:47.387Z,101418.62
2017-10-18T12:43:15.728Z,101421.73
2017-10-18T12:45:44.066Z,101417.13
2017-10-18T12:48:12.398Z,101411.25
2017-10-18T12:50:40.805Z,101406.61
2017-10-18T12:53:09.901Z,101407.67
2017-10-18T12:55:38.971Z,101408.86
2017-10-18T12:58:07.288Z,101405.21
2017-10-18T13:00:36.369Z,101403.03
2017-10-18T13:03:04.705Z,101404.10
2017-10-18T13:05:33.043Z,101405.28
2017-10-18T13:08:02.116Z,101404.51
2017-10-18T13:10:30.432Z,101395.93
2017-10-18T13:12:59.519Z,101394.92
2017-10-18T13:15:27.834Z,101395.63
2017-10-18T13:17:56.154Z,101398.98
2017-10-18T13:20:24.500Z,101398.86
2017-10-18T13:22:52.817Z,101393.92
2017-10-18T13:25:21.140Z,101394.84
2017-10-18T13:27:50.222Z,101402.77
2017-10-18T13:30:18.537Z,101390.05
2017-10-18T13:32:46.860Z,101389.16
2017-10-18T13:35:15.178Z,101388.38
2017-10-18T13:37:44.279Z,101388.67
2017-10-18T13:40:13.358Z,101388.42
2017-10-18T13:42:41.671Z,101387.48
2017-10-18T13:45:10.776Z,101388.84
2017-10-18T13:47:39.079Z,101388.71
2017-10-18T13:50:07.407Z,101386.17
2017-10-18T13:52:35.718Z,101387.00
2017-10-18T13:55:04.036Z,101382.81
2017-10-18T13:57:32.401Z,101381.88
2017-10-18T14:00:00.735Z,101379.45
2017-10-18T14:02:29.045Z,101383.39
2017-10-18T14:04:58.144Z,101383.03
2017-10-18T14:07:26.459Z,101380.89
2017-10-18T14:09:54.766Z,101378.39
2017-10-18T14:12:23.074Z,101379.01
2017-10-18T14:14:52.162Z,101374.00
2017-10-18T14:17:20.487Z,101379.95
2017-10-18T14:19:48.795Z,101382.01
2017-10-18T14:22:17.106Z,101380.03
2017-10-18T14:24:45.416Z,101378.97
2017-10-18T14:27:13.768Z,101377.61
2017-10-18T14:29:42.099Z,101367.97
2017-10-18T14:32:10.402Z,101370.27
2017-10-18T14:34:38.734Z,101375.31
2017-10-18T14:37:07.805Z,101374.78
2017-10-18T14:39:36.118Z,101368.54
2017-10-18T14:42:05.214Z,101369.08
2017-10-18T14:44:34.301Z,101364.15
2017-10-18T14:47:02.627Z,101363.86
2017-10-18T14:49:30.940Z,101363.33
2017-10-18T14:51:59.256Z,101365.50
2017-10-18T14:54:28.349Z,101357.38
2017-10-18T14:56:57.456Z,101357.74
2017-10-18T14:59:26.556Z,101358.36
2017-10-18T15:01:55.653Z,101351.63
2017-10-18T15:04:24.724Z,101345.18
2017-10-18T15:07:14.341Z,101356.63
2017-10-18T15:09:42.662Z,101357.11
2017-10-18T15:12:10.983Z,101364.08
2017-10-18T15:14:43.439Z,101353.20
2017-10-18T15:17:14.004Z,101364.86
2017-10-18T15:19:42.451Z,101366.33
2017-10-18T15:22:10.753Z,101362.02
2017-10-18T15:24:39.847Z,101362.14
2017-10-18T15:27:08.179Z,101361.03
2017-10-18T15:29:36.913Z,101357.45
2017-10-18T15:32:07.870Z,101352.81
2017-10-18T15:34:37.027Z,101356.13
2017-10-18T15:37:05.338Z,101351.64
2017-10-18T15:39:33.669Z,101345.24
2017-10-18T15:42:02.050Z,101342.61
2017-10-18T15:44:30.372Z,101344.28
2017-10-18T15:46:58.687Z,101340.20
2017-10-18T15:49:27.811Z,101341.23
2017-10-18T15:51:56.137Z,101343.06
2017-10-18T15:54:24.431Z,101344.25
2017-10-18T15:56:52.752Z,101350.56
2017-10-18T15:59:21.062Z,101339.95
2017-10-18T16:01:49.424Z,101345.08
2017-10-18T16:04:17.743Z,101350.45
2017-10-18T16:06:46.061Z,101354.80
2017-10-18T16:09:15.157Z,101354.09
2017-10-18T16:11:44.225Z,101355.57
2017-10-18T16:14:12.536Z,101356.63
2017-10-18T16:16:41.618Z,101345.34
2017-10-18T16:19:09.995Z,101342.74
2017-10-18T16:21:38.374Z,101346.70
2017-10-18T16:24:06.702Z,101342.78
2017-10-18T16:26:35.003Z,101339.20
2017-10-18T16:29:03.317Z,101344.40
2017-10-18T16:31:31.653Z,101347.82
2017-10-18T16:33:59.955Z,101355.09
2017-10-18T16:36:28.294Z,101358.03
2017-10-18T16:38:57.362Z,101359.05
2017-10-18T16:41:25.755Z,101361.11
2017-10-18T16:43:54.064Z,101364.73
2017-10-18T16:46:22.374Z,101373.09
2017-10-18T16:48:50.711Z,101372.09
2017-10-18T16:51:19.790Z,101378.38
2017-10-18T16:53:48.129Z,101371.02
2017-10-18T16:56:16.439Z,101374.43
2017-10-18T16:58:44.762Z,101366.73
2017-10-18T17:01:13.838Z,101365.21
2017-10-18T17:03:42.149Z,101365.48
2017-10-18T17:06:11.218Z,101365.59
2017-10-18T17:08:39.543Z,101363.07
2017-10-18T17:11:07.880Z,101360.43
2017-10-18T17:13:36.232Z,101368.07
2017-10-18T17:16:04.734Z,101362.76
2017-10-18T17:18:33.083Z,101365.28
2017-10-18T17:21:01.382Z,101377.62
2017-10-18T17:23:29.684Z,101369.69
2017-10-18T17:25:58.038Z,101373.72
2017-10-18T17:28:26.327Z,101373.66
2017-10-18T17:30:54.644Z,101375.59
2017-10-18T17:33:22.982Z,101368.89
2017-10-18T17:35:51.294Z,101369.00
2017-10-18T17:38:19.671Z,101369.61
2017-10-18T17:40:48.892Z,101374.12
2017-10-18T17:43:17.211Z,101368.55
2017-10-18T17:45:45.603Z,101366.95
2017-10-18T17:48:13.904Z,101366.92
2017-10-18T17:50:42.217Z,101364.09
2017-10-18T17:53:10.533Z,101375.13
2017-10-18T17:55:38.846Z,101377.35
2017-10-18T17:58:07.170Z,101372.37
2017-10-18T18:00:35.988Z,101368.80
2017-10-18T18:03:05.103Z,101368.31
2017-10-18T18:05:33.429Z,101370.66
2017-10-18T18:08:01.757Z,101365.80
2017-10-18T18:10:30.064Z,101373.98
2017-10-18T18:12:58.381Z,101370.43
2017-10-18T18:15:26.703Z,101373.36
2017-10-18T18:17:55.017Z,101370.59
2017-10-18T18:20:23.342Z,101360.66
2017-10-18T18:22:51.649Z,101367.75
2017-10-18T18:25:19.965Z,101367.42
2017-10-18T18:27:48.296Z,101368.41
2017-10-18T18:30:17.373Z,101373.02
2017-10-18T18:32:45.711Z,101378.16
2017-10-18T18:35:14.029Z,101380.64
2017-10-18T18:37:42.335Z,101379.30
2017-10-18T18:40:11.564Z,101381.81
2017-10-18T18:42:39.883Z,101383.91
2017-10-18T18:45:08.203Z,101380.61
2017-10-18T18:47:37.310Z,101382.19
2017-10-18T18:50:06.384Z,101371.52
2017-10-18T18:52:34.779Z,101378.25
2017-10-18T18:55:03.101Z,101376.42
2017-10-18T18:57:31.410Z,101378.70
2017-10-18T18:59:59.756Z,101378.30
2017-10-18T19:02:28.094Z,101377.36
2017-10-18T19:04:56.425Z,101384.22
2017-10-18T19:07:25.483Z,101382.00
2017-10-18T19:09:53.798Z,101383.53
2017-10-18T19:12:22.187Z,101374.03
2017-10-18T19:14:50.498Z,101372.89
2017-10-18T19:17:18.824Z,101377.77
2017-10-18T19:19:47.903Z,101371.73
2017-10-18T19:22:16.223Z,101376.94
2017-10-18T19:24:44.537Z,101382.56
2017-10-18T19:27:12.857Z,101375.11
2017-10-18T19:29:41.170Z,101371.29
2017-10-18T19:32:09.475Z,101369.11
2017-10-18T19:34:37.815Z,101370.09
2017-10-18T19:37:06.882Z,101370.84
2017-10-18T19:39:38.376Z,101368.93
2017-10-18T19:42:06.745Z,101363.65
2017-10-18T19:44:35.827Z,101367.47
2017-10-18T19:47:04.132Z,101364.25
2017-10-18T19:49:33.223Z,101370.32
2017-10-18T19:52:02.296Z,101368.30
2017-10-18T19:54:30.621Z,101363.13
2017-10-18T19:56:58.947Z,101367.17
2017-10-18T19:59:27.265Z,101364.58
2017-10-18T20:01:56.352Z,101369.16
2017-10-18T20:04:24.662Z,101369.16
2017-10-18T20:06:53.767Z,101365.34
2017-10-18T20:09:22.101Z,101369.20
2017-10-18T20:11:50.469Z,101362.67
2017-10-18T20:14:18.786Z,101367.47
2017-10-18T20:16:47.097Z,101370.17
2017-10-18T20:19:15.421Z,101365.30
2017-10-18T20:21:43.738Z,101371.11
2017-10-18T20:24:12.809Z,101366.13
2017-10-18T20:26:41.131Z,101370.05
2017-10-18T20:29:10.293Z,101366.31
2017-10-18T20:31:38.639Z,101363.73
2017-10-18T20:34:06.966Z,101361.14
2017-10-18T20:36:35.300Z,101358.78
2017-10-18T20:39:03.639Z,101361.63
2017-10-18T20:41:31.948Z,101358.45
2017-10-18T20:44:00.249Z,101353.58
2017-10-18T20:46:28.544Z,101356.09
2017-10-18T20:48:56.856Z,101355.67
2017-10-18T20:51:25.184Z,101358.19
2017-10-18T20:53:53.501Z,101346.28
2017-10-18T20:56:21.838Z,101337.70
2017-10-18T20:58:50.440Z,101351.55
2017-10-18T21:01:18.875Z,101359.11
2017-10-18T21:03:51.555Z,101354.25
2017-10-18T21:06:21.455Z,101355.07
2017-10-18T21:08:49.843Z,101349.68
2017-10-18T21:11:18.949Z,101353.77
2017-10-18T21:13:47.278Z,101353.05
2017-10-18T21:16:15.588Z,101357.09
2017-10-18T21:18:44.059Z,101357.81
2017-10-18T21:21:12.367Z,101355.30
2017-10-18T21:23:40.694Z,101348.38
2017-10-18T21:26:09.770Z,101349.02
2017-10-18T21:28:38.084Z,101350.61
2017-10-18T21:31:07.178Z,101344.92
2017-10-18T21:33:36.258Z,101344.21
2017-10-18T21:36:04.581Z,101342.98
2017-10-18T21:38:32.886Z,101343.39
2017-10-18T21:41:01.206Z,101340.39
2017-10-18T21:43:30.320Z,101335.83
2017-10-18T21:45:59.382Z,101333.55
2017-10-18T21:48:27.707Z,101325.98
2017-10-18T21:50:56.791Z,101331.38
2017-10-18T21:53:25.121Z,101328.37
2017-10-18T21:55:53.426Z,101328.91
2017-10-18T21:58:21.760Z,101330.55
2017-10-18T22:00:50.069Z,101328.91
2017-10-18T22:03:18.375Z,101325.69
2017-10-18T22:05:46.694Z,101330.44
2017-10-18T22:08:15.781Z,101332.20
2017-10-18T22:10:44.099Z,101327.85
2017-10-18T22:13:12.541Z,101330.96
2017-10-18T22:15:41.634Z,101328.79
2017-10-18T22:18:09.978Z,101328.27
2017-10-18T22:20:38.293Z,101329.39
2017-10-18T22:23:06.612Z,101329.39
2017-10-18T22:25:34.926Z,101330.21
2017-10-18T22:28:03.268Z,101329.16
2017-10-18T22:30:31.573Z,101325.01
2017-10-18T22:32:59.895Z,101331.08
2017-10-18T22:35:28.197Z,101328.11
2017-10-18T22:37:56.521Z,101330.14
2017-10-18T22:40:24.830Z,101336.24
2017-10-18T22:42:53.142Z,101334.78
2017-10-18T22:45:22.227Z,101334.89
2017-10-18T22:47:50.555Z,101335.42
2017-10-18T22:50:18.883Z,101332.91
2017-10-18T22:52:47.183Z,101334.59
2017-10-18T22:55:15.507Z,101330.85
2017-10-18T22:57:43.821Z,101327.11
2017-10-18T23:00:12.211Z,101318.61
2017-10-18T23:02:40.514Z,101313.97
2017-10-18T23:05:08.819Z,101321.37
2017-10-18T23:07:37.125Z,101322.42
2017-10-18T23:10:05.448Z,101320.66
2017-10-18T23:12:33.771Z,101320.37
2017-10-18T23:15:02.106Z,101322.23
2017-10-18T23:17:31.174Z,101320.59
2017-10-18T23:19:59.481Z,101325.69
2017-10-18T23:22:27.789Z,101322.46
2017-10-18T23:24:56.863Z,101324.03
2017-10-18T23:27:25.182Z,101326.02
2017-10-18T23:29:53.530Z,101327.48
2017-10-18T23:32:21.832Z,101324.19
2017-10-18T23:34:50.247Z,101324.71
2017-10-18T23:37:18.565Z,101328.70
2017-10-18T23:39:46.879Z,101330.92
2017-10-18T23:42:15.957Z,101331.36
2017-10-18T23:44:44.279Z,101326.42
2017-10-18T23:47:12.603Z,101328.30
2017-10-18T23:49:40.955Z,101325.11
2017-10-18T23:52:09.267Z,101327.54
2017-10-18T23:54:37.592Z,101320.42
2017-10-18T23:57:06.657Z,101323.87
2017-10-18T23:59:34.978Z,101317.47
